createdAt,value
2019-04-28T00:00:06.842Z,9.47
2019-04-28T00:02:40.833Z,9.52
2019-04-28T00:05:12.506Z,9.50
2019-04-28T00:07:44.262Z,9.51
2019-04-28T00:10:15.872Z,9.54
2019-04-28T00:12:47.454Z,9.51
2019-04-28T00:15:20.766Z,9.46
2019-04-28T00:17:51.769Z,9.46
2019-04-28T00:20:24.745Z,9.43
2019-04-28T00:22:57.647Z,9.45
2019-04-28T00:25:31.215Z,9.42
2019-04-28T00:28:03.356Z,9.41
2019-04-28T00:30:34.958Z,9.36
2019-04-28T00:33:07.529Z,9.32
2019-04-28T00:35:38.699Z,9.29
2019-04-28T00:38:11.510Z,9.24
2019-04-28T00:40:42.585Z,9.31
2019-04-28T00:43:13.699Z,9.33
2019-04-28T00:45:44.771Z,9.36
2019-04-28T00:48:16.297Z,9.37
2019-04-28T00:50:47.863Z,9.27
2019-04-28T00:53:20.705Z,9.23
2019-04-28T00:55:54.025Z,9.15
2019-04-28T00:58:25.517Z,9.09
2019-04-28T01:00:58.098Z,9.15
2019-04-28T01:03:29.447Z,9.10
2019-04-28T01:06:01.899Z,8.95
2019-04-28T01:08:33.462Z,8.93
2019-04-28T01:11:05.165Z,8.89
2019-04-28T01:13:36.645Z,8.85
2019-04-28T01:16:10.993Z,8.87
2019-04-28T01:18:44.773Z,8.91
2019-04-28T01:21:17.157Z,8.88
2019-04-28T01:23:50.045Z,8.82
2019-04-28T01:26:22.645Z,8.84
2019-04-28T01:28:55.236Z,8.85
2019-04-28T01:31:29.450Z,8.82
2019-04-28T01:34:03.540Z,8.83
2019-04-28T01:36:37.546Z,8.85
2019-04-28T01:39:10.049Z,8.84
2019-04-28T01:41:42.030Z,8.86
2019-04-28T01:44:14.404Z,8.94
2019-04-28T01:46:45.600Z,8.93
2019-04-28T01:49:17.188Z,8.87
2019-04-28T01:51:51.780Z,8.90
2019-04-28T01:54:22.743Z,8.97
2019-04-28T01:56:53.910Z,9.08
2019-04-28T01:59:25.227Z,9.06
2019-04-28T02:01:56.699Z,8.98
2019-04-28T02:04:30.041Z,8.85
2019-04-28T02:07:02.042Z,8.85
2019-04-28T02:09:33.617Z,8.91
2019-04-28T02:12:05.086Z,8.80
2019-04-28T02:14:37.680Z,8.83
2019-04-28T02:17:10.471Z,8.85
2019-04-28T02:19:42.204Z,8.85
2019-04-28T02:22:14.913Z,8.92
2019-04-28T02:24:46.422Z,9.01
2019-04-28T02:27:20.301Z,9.05
2019-04-28T02:29:51.808Z,9.13
2019-04-28T02:32:25.338Z,9.22
2019-04-28T02:34:57.455Z,9.27
2019-04-28T02:37:30.560Z,9.36
2019-04-28T02:40:03.513Z,9.44
2019-04-28T02:42:35.566Z,9.50
2019-04-28T02:45:11.324Z,9.55
2019-04-28T02:47:42.168Z,9.57
2019-04-28T02:50:15.607Z,9.62
2019-04-28T02:52:51.610Z,9.66
2019-04-28T02:55:21.700Z,9.69
2019-04-28T02:57:52.557Z,9.73
2019-04-28T03:00:24.909Z,9.76
2019-04-28T03:02:55.979Z,9.79
2019-04-28T03:05:27.690Z,9.86
2019-04-28T03:08:01.237Z,9.89
2019-04-28T03:10:34.436Z,9.90
2019-04-28T03:13:06.820Z,9.95
2019-04-28T03:15:38.115Z,9.96
2019-04-28T03:18:11.507Z,9.99
2019-04-28T03:20:42.219Z,9.99
2019-04-28T03:23:14.545Z,9.96
2019-04-28T03:25:50.645Z,9.95
2019-04-28T03:28:23.379Z,9.95
2019-04-28T03:30:56.341Z,9.98
2019-04-28T03:33:33.032Z,9.97
2019-04-28T03:36:07.843Z,9.98
2019-04-28T03:38:36.202Z,10.00
2019-04-28T03:41:07.801Z,9.97
2019-04-28T03:43:40.754Z,9.97
2019-04-28T03:46:14.182Z,10.01
2019-04-28T03:48:45.461Z,10.04
2019-04-28T03:51:17.257Z,10.08
2019-04-28T03:53:50.568Z,10.08
2019-04-28T03:56:21.424Z,10.09
2019-04-28T03:58:53.332Z,10.09
2019-04-28T04:01:25.039Z,10.11
2019-04-28T04:03:56.131Z,10.13
2019-04-28T04:06:31.057Z,10.10
2019-04-28T04:09:02.973Z,10.10
2019-04-28T04:11:37.606Z,10.10
2019-04-28T04:14:11.403Z,10.08
2019-04-28T04:16:47.160Z,10.11
2019-04-28T04:19:20.324Z,10.07
2019-04-28T04:21:52.730Z,10.11
2019-04-28T04:24:24.255Z,10.05
2019-04-28T04:26:55.958Z,10.05
2019-04-28T04:29:27.117Z,10.04
2019-04-28T04:32:11.689Z,10.05
2019-04-28T04:34:31.839Z,10.07
2019-04-28T04:37:03.513Z,10.09
2019-04-28T04:39:34.907Z,10.08
2019-04-28T04:42:06.839Z,10.09
2019-04-28T04:44:41.390Z,10.12
2019-04-28T04:47:11.188Z,10.18
2019-04-28T04:49:44.160Z,10.18
2019-04-28T04:52:16.486Z,10.21
2019-04-28T04:54:48.274Z,10.20
2019-04-28T04:57:20.770Z,10.26
2019-04-28T04:59:52.706Z,10.27
2019-04-28T05:02:29.222Z,10.30
2019-04-28T05:05:00.461Z,10.28
2019-04-28T05:07:32.071Z,10.26
2019-04-28T05:10:05.475Z,10.28
2019-04-28T05:12:37.023Z,10.33
2019-04-28T05:15:10.420Z,10.36
2019-04-28T05:17:41.832Z,10.33
2019-04-28T05:20:13.966Z,10.43
2019-04-28T05:22:46.943Z,10.44
2019-04-28T05:25:20.490Z,10.47
2019-04-28T05:27:54.474Z,10.43
2019-04-28T05:30:25.581Z,10.45
2019-04-28T05:32:57.458Z,10.51
2019-04-28T05:35:29.777Z,10.57
2019-04-28T05:38:01.187Z,10.58
2019-04-28T05:40:36.703Z,10.67
2019-04-28T05:43:11.863Z,10.68
2019-04-28T05:46:14.377Z,10.75
2019-04-28T05:49:01.212Z,10.83
2019-04-28T05:51:34.248Z,10.93
2019-04-28T05:54:09.869Z,10.97
2019-04-28T05:56:42.832Z,11.00
2019-04-28T05:59:15.776Z,10.99
2019-04-28T06:01:50.622Z,11.03
2019-04-28T06:04:23.342Z,11.12
2019-04-28T06:06:55.939Z,11.11
2019-04-28T06:09:29.488Z,11.17
2019-04-28T06:12:01.001Z,11.18
2019-04-28T06:14:32.432Z,11.18
2019-04-28T06:17:04.243Z,11.25
2019-04-28T06:19:35.358Z,11.32
2019-04-28T06:22:07.030Z,11.39
2019-04-28T06:24:38.982Z,11.52
2019-04-28T06:27:11.179Z,11.64
2019-04-28T06:29:42.899Z,11.75
2019-04-28T06:32:15.969Z,11.93
2019-04-28T06:34:47.372Z,12.04
2019-04-28T06:37:18.676Z,12.15
2019-04-28T06:39:50.641Z,12.24
2019-04-28T06:42:22.514Z,12.36
2019-04-28T06:44:54.019Z,12.35
2019-04-28T06:47:26.852Z,12.42
2019-04-28T06:49:58.381Z,12.49
2019-04-28T06:52:29.687Z,12.48
2019-04-28T06:55:01.846Z,12.63
2019-04-28T06:57:34.601Z,12.73
2019-04-28T07:00:07.763Z,12.67
2019-04-28T07:02:39.338Z,12.63
2019-04-28T07:05:11.938Z,12.62
2019-04-28T07:07:43.474Z,12.71
2019-04-28T07:10:15.264Z,12.79
2019-04-28T07:12:46.546Z,12.79
2019-04-28T07:15:21.227Z,12.88
2019-04-28T07:17:52.696Z,12.95
2019-04-28T07:20:26.502Z,12.94
2019-04-28T07:22:58.701Z,12.93
2019-04-28T07:25:30.703Z,12.94
2019-04-28T07:28:03.223Z,13.00
2019-04-28T07:30:36.342Z,13.03
2019-04-28T07:33:08.101Z,13.03
2019-04-28T07:35:42.171Z,13.08
2019-04-28T07:38:14.870Z,13.16
2019-04-28T07:40:46.623Z,13.20
2019-04-28T07:43:17.443Z,13.16
2019-04-28T07:45:48.631Z,12.93
2019-04-28T07:48:20.015Z,12.90
2019-04-28T07:50:52.036Z,12.82
2019-04-28T07:53:24.829Z,12.77
2019-04-28T07:55:57.359Z,12.76
2019-04-28T07:58:28.676Z,12.83
2019-04-28T08:01:01.017Z,12.86
2019-04-28T08:03:33.275Z,13.00
2019-04-28T08:06:08.342Z,12.97
2019-04-28T08:08:42.556Z,13.04
2019-04-28T08:11:14.315Z,12.91
2019-04-28T08:13:45.615Z,13.01
2019-04-28T08:16:17.055Z,13.02
2019-04-28T08:18:52.550Z,12.90
2019-04-28T08:21:29.378Z,12.80
2019-04-28T08:24:02.998Z,12.88
2019-04-28T08:26:36.305Z,12.92
2019-04-28T08:29:08.453Z,12.85
2019-04-28T08:31:41.523Z,13.01
2019-04-28T08:34:23.510Z,12.93
2019-04-28T08:36:57.311Z,12.97
2019-04-28T08:39:29.232Z,13.09
2019-04-28T08:42:01.691Z,13.14
2019-04-28T08:44:34.991Z,13.11
2019-04-28T08:47:06.310Z,13.05
2019-04-28T08:49:37.834Z,12.93
2019-04-28T08:52:10.477Z,12.92
2019-04-28T08:54:43.904Z,12.90
2019-04-28T08:57:18.672Z,12.82
2019-04-28T08:59:50.772Z,12.85
2019-04-28T09:02:22.473Z,12.89
2019-04-28T09:04:54.258Z,12.87
2019-04-28T09:07:27.056Z,12.99
2019-04-28T09:09:59.849Z,13.08
2019-04-28T09:12:31.256Z,13.17
2019-04-28T09:15:06.577Z,13.09
2019-04-28T09:17:43.783Z,13.09
2019-04-28T09:20:16.137Z,13.03
2019-04-28T09:22:47.083Z,13.11
2019-04-28T09:25:39.686Z,13.21
2019-04-28T09:28:29.108Z,13.27
2019-04-28T09:31:05.972Z,13.24
2019-04-28T09:33:41.510Z,13.27
2019-04-28T09:36:36.056Z,13.44
2019-04-28T09:39:14.296Z,13.57
2019-04-28T09:41:49.693Z,13.54
2019-04-28T09:44:23.992Z,13.53
2019-04-28T09:46:57.157Z,13.56
2019-04-28T09:49:29.137Z,13.65
2019-04-28T09:52:01.237Z,13.83
2019-04-28T09:54:35.318Z,13.93
2019-04-28T09:57:08.557Z,13.94
2019-04-28T09:59:40.521Z,14.02
2019-04-28T10:02:12.699Z,14.16
2019-04-28T10:04:47.875Z,14.16
2019-04-28T10:07:23.062Z,14.18
2019-04-28T10:09:57.375Z,14.15
2019-04-28T10:12:29.437Z,14.19
2019-04-28T10:15:01.497Z,14.32
2019-04-28T10:17:33.999Z,14.42
2019-04-28T10:20:07.897Z,14.52
2019-04-28T10:22:41.056Z,14.59
2019-04-28T10:25:13.476Z,14.59
2019-04-28T10:27:45.690Z,14.56
2019-04-28T10:30:17.596Z,14.61
2019-04-28T10:32:49.340Z,14.67
2019-04-28T10:35:21.278Z,14.72
2019-04-28T10:37:55.477Z,14.70
2019-04-28T10:40:30.953Z,14.63
2019-04-28T10:43:03.403Z,14.61
2019-04-28T10:45:37.096Z,14.65
2019-04-28T10:48:08.951Z,14.82
2019-04-28T10:50:42.276Z,14.81
2019-04-28T10:53:14.516Z,14.87
2019-04-28T10:55:46.102Z,14.96
2019-04-28T10:58:18.858Z,15.08
2019-04-28T11:00:50.403Z,15.05
2019-04-28T11:03:22.596Z,15.08
2019-04-28T11:05:55.119Z,15.07
2019-04-28T11:08:27.464Z,15.16
2019-04-28T11:11:04.141Z,15.28
2019-04-28T11:13:39.920Z,15.29
2019-04-28T11:16:19.477Z,15.03
2019-04-28T11:18:55.673Z,14.70
2019-04-28T11:21:39.843Z,14.72
2019-04-28T11:24:12.798Z,14.67
2019-04-28T11:26:45.884Z,14.77
2019-04-28T11:29:18.554Z,14.76
2019-04-28T11:31:52.221Z,14.86
2019-04-28T11:34:25.500Z,14.86
2019-04-28T11:36:57.065Z,14.94
2019-04-28T11:39:30.246Z,14.80
2019-04-28T11:42:01.314Z,14.99
2019-04-28T11:44:32.547Z,14.94
2019-04-28T11:47:05.500Z,15.01
2019-04-28T11:49:36.704Z,15.11
2019-04-28T11:52:08.553Z,14.95
2019-04-28T11:54:40.959Z,15.02
2019-04-28T11:57:12.403Z,15.09
2019-04-28T11:59:43.685Z,14.74
2019-04-28T12:02:15.374Z,14.73
2019-04-28T12:04:47.037Z,14.74
2019-04-28T12:07:18.925Z,14.80
2019-04-28T12:10:03.819Z,14.81
2019-04-28T12:12:26.576Z,14.73
2019-04-28T12:14:59.554Z,14.80
2019-04-28T12:17:30.858Z,14.65
2019-04-28T12:20:04.028Z,14.72
2019-04-28T12:22:35.917Z,14.66
2019-04-28T12:25:08.132Z,14.46
2019-04-28T12:27:39.315Z,14.43
2019-04-28T12:30:11.340Z,14.55
2019-04-28T12:32:43.488Z,14.68
2019-04-28T12:35:15.205Z,14.58
2019-04-28T12:37:49.152Z,14.65
2019-04-28T12:40:22.619Z,14.58
2019-04-28T12:42:54.492Z,14.56
2019-04-28T12:45:34.769Z,14.51
2019-04-28T12:47:59.375Z,14.46
2019-04-28T12:50:32.561Z,14.35
2019-04-28T12:53:03.909Z,14.27
2019-04-28T12:55:35.169Z,14.17
2019-04-28T12:58:06.676Z,14.06
2019-04-28T13:00:39.426Z,14.00
2019-04-28T13:03:12.220Z,14.17
2019-04-28T13:05:46.228Z,14.17
2019-04-28T13:08:18.185Z,14.26
2019-04-28T13:10:49.633Z,14.30
2019-04-28T13:13:21.137Z,14.14
2019-04-28T13:15:53.037Z,14.11
2019-04-28T13:18:24.977Z,14.25
2019-04-28T13:20:58.955Z,14.42
2019-04-28T13:23:29.365Z,14.31
2019-04-28T13:26:01.168Z,14.36
2019-04-28T13:28:32.613Z,14.32
2019-04-28T13:31:03.891Z,14.35
2019-04-28T13:33:35.249Z,14.19
2019-04-28T13:36:14.532Z,14.22
2019-04-28T13:38:40.603Z,14.21
2019-04-28T13:41:11.934Z,14.07
2019-04-28T13:43:46.750Z,14.07
2019-04-28T13:46:18.460Z,14.01
2019-04-28T13:48:49.935Z,13.93
2019-04-28T13:51:21.936Z,13.97
2019-04-28T13:53:53.677Z,14.06
2019-04-28T13:56:25.120Z,14.01
2019-04-28T13:58:57.829Z,14.02
2019-04-28T14:01:30.594Z,14.05
2019-04-28T14:04:03.216Z,14.10
2019-04-28T14:06:36.098Z,14.05
2019-04-28T14:09:10.289Z,14.08
2019-04-28T14:11:43.518Z,14.12
2019-04-28T14:14:15.303Z,13.92
2019-04-28T14:16:46.826Z,13.85
2019-04-28T14:19:18.085Z,13.80
2019-04-28T14:21:49.912Z,13.71
2019-04-28T14:24:21.209Z,13.71
2019-04-28T14:26:53.114Z,13.65
2019-04-28T14:29:25.036Z,13.61
2019-04-28T14:31:56.374Z,13.69
2019-04-28T14:34:28.528Z,13.56
2019-04-28T14:37:00.166Z,13.51
2019-04-28T14:39:33.144Z,13.51
2019-04-28T14:42:04.743Z,13.55
2019-04-28T14:44:35.921Z,13.61
2019-04-28T14:47:07.366Z,13.49
2019-04-28T14:49:38.585Z,13.33
2019-04-28T14:52:10.293Z,13.30
2019-04-28T14:54:41.669Z,13.32
2019-04-28T14:57:12.828Z,13.32
2019-04-28T14:59:44.071Z,13.18
2019-04-28T15:02:18.180Z,13.21
2019-04-28T15:04:51.294Z,13.14
2019-04-28T15:07:24.579Z,13.10
2019-04-28T15:09:57.829Z,13.01
2019-04-28T15:12:29.547Z,12.96
2019-04-28T15:15:01.212Z,12.83
2019-04-28T15:17:32.704Z,12.69
2019-04-28T15:20:05.086Z,12.66
2019-04-28T15:22:36.720Z,12.74
2019-04-28T15:25:08.598Z,12.76
2019-04-28T15:27:42.999Z,12.77
2019-04-28T15:30:15.022Z,12.75
2019-04-28T15:32:46.889Z,12.74
2019-04-28T15:35:18.890Z,12.74
2019-04-28T15:37:50.613Z,12.75
2019-04-28T15:40:22.778Z,12.71
2019-04-28T15:42:54.503Z,12.66
2019-04-28T15:45:26.215Z,12.68
2019-04-28T15:47:57.641Z,12.61
2019-04-28T15:50:30.221Z,12.58
2019-04-28T15:53:02.032Z,12.56
2019-04-28T15:55:34.865Z,12.53
2019-04-28T15:58:08.869Z,12.47
2019-04-28T16:00:43.269Z,12.38
2019-04-28T16:03:15.403Z,12.31
2019-04-28T16:05:46.459Z,12.27
2019-04-28T16:08:17.463Z,12.24
2019-04-28T16:10:49.975Z,12.24
2019-04-28T16:13:21.285Z,12.18
2019-04-28T16:15:53.093Z,12.14
2019-04-28T16:18:24.662Z,12.11
2019-04-28T16:20:56.282Z,12.12
2019-04-28T16:23:28.876Z,11.97
2019-04-28T16:26:00.500Z,11.94
2019-04-28T16:28:31.927Z,11.92
2019-04-28T16:31:03.583Z,11.81
2019-04-28T16:33:34.825Z,11.81
2019-04-28T16:36:06.086Z,11.82
2019-04-28T16:38:37.664Z,11.78
2019-04-28T16:41:10.899Z,11.73
2019-04-28T16:43:42.578Z,11.70
2019-04-28T16:46:14.102Z,11.68
2019-04-28T16:48:45.712Z,11.60
2019-04-28T16:51:17.391Z,11.58
2019-04-28T16:53:49.017Z,11.55
2019-04-28T16:56:21.919Z,11.53
2019-04-28T16:58:54.676Z,11.54
2019-04-28T17:01:27.611Z,11.46
2019-04-28T17:03:58.967Z,11.48
2019-04-28T17:06:30.231Z,11.52
2019-04-28T17:09:01.849Z,11.51
2019-04-28T17:11:35.132Z,11.52
2019-04-28T17:14:06.806Z,11.54
2019-04-28T17:16:38.747Z,11.51
2019-04-28T17:19:10.789Z,11.45
2019-04-28T17:21:41.568Z,11.47
2019-04-28T17:24:13.558Z,11.44
2019-04-28T17:26:49.639Z,11.40
2019-04-28T17:29:22.118Z,11.43
2019-04-28T17:31:54.154Z,11.42
2019-04-28T17:34:27.345Z,11.37
2019-04-28T17:36:59.943Z,11.30
2019-04-28T17:39:32.732Z,11.27
2019-04-28T17:42:06.081Z,11.25
2019-04-28T17:44:38.201Z,11.24
2019-04-28T17:47:10.061Z,11.26
2019-04-28T17:49:45.522Z,11.25
2019-04-28T17:52:16.402Z,11.21
2019-04-28T17:54:47.116Z,11.16
2019-04-28T17:57:25.368Z,11.19
2019-04-28T18:00:02.289Z,11.20
2019-04-28T18:02:36.494Z,11.18
2019-04-28T18:05:09.329Z,11.17
2019-04-28T18:07:40.129Z,11.12
2019-04-28T18:10:11.463Z,11.16
2019-04-28T18:12:42.261Z,11.22
2019-04-28T18:15:15.171Z,11.18
2019-04-28T18:17:48.152Z,11.13
2019-04-28T18:20:19.032Z,11.05
2019-04-28T18:22:51.279Z,11.11
2019-04-28T18:25:24.392Z,11.12
2019-04-28T18:28:00.682Z,11.08
2019-04-28T18:30:36.974Z,11.03
2019-04-28T18:33:12.764Z,11.04
2019-04-28T18:35:45.663Z,11.00
2019-04-28T18:38:19.230Z,10.99
2019-04-28T18:40:53.867Z,10.96
2019-04-28T18:43:27.992Z,10.99
2019-04-28T18:45:59.746Z,10.90
2019-04-28T18:48:31.967Z,10.90
2019-04-28T18:51:05.464Z,10.92
2019-04-28T18:53:36.918Z,10.94
2019-04-28T18:56:08.671Z,10.94
2019-04-28T18:58:39.877Z,10.92
2019-04-28T19:01:12.484Z,10.90
2019-04-28T19:03:43.750Z,10.82
2019-04-28T19:06:15.288Z,10.83
2019-04-28T19:08:49.604Z,10.82
2019-04-28T19:11:22.194Z,10.78
2019-04-28T19:13:54.761Z,10.73
2019-04-28T19:16:28.531Z,10.72
2019-04-28T19:19:01.573Z,10.68
2019-04-28T19:21:36.478Z,10.69
2019-04-28T19:24:07.991Z,10.66
2019-04-28T19:26:39.591Z,10.68
2019-04-28T19:29:10.380Z,10.64
2019-04-28T19:31:41.921Z,10.58
2019-04-28T19:34:13.393Z,10.60
2019-04-28T19:36:46.587Z,10.54
2019-04-28T19:39:19.284Z,10.52
2019-04-28T19:41:52.865Z,10.51
2019-04-28T19:44:24.647Z,10.50
2019-04-28T19:46:56.411Z,10.48
2019-04-28T19:49:29.805Z,10.53
2019-04-28T19:52:01.935Z,10.55
2019-04-28T19:54:35.825Z,10.53
2019-04-28T19:57:08.896Z,10.47
2019-04-28T19:59:41.807Z,10.44
2019-04-28T20:02:14.106Z,10.44
2019-04-28T20:04:46.012Z,10.41
2019-04-28T20:07:18.554Z,10.43
2019-04-28T20:09:51.681Z,10.40
2019-04-28T20:12:23.454Z,10.37
2019-04-28T20:14:55.827Z,10.35
2019-04-28T20:17:27.685Z,10.37
2019-04-28T20:19:59.298Z,10.36
2019-04-28T20:22:49.796Z,10.36
2019-04-28T20:25:39.247Z,10.40
2019-04-28T20:28:29.863Z,10.44
2019-04-28T20:31:01.334Z,10.42
2019-04-28T20:33:36.598Z,10.34
2019-04-28T20:36:09.905Z,10.30
2019-04-28T20:38:44.613Z,10.30
2019-04-28T20:41:26.832Z,10.33
2019-04-28T20:44:09.932Z,10.31
2019-04-28T20:46:52.945Z,10.29
2019-04-28T20:49:41.555Z,10.24
2019-04-28T20:52:22.323Z,10.21
2019-04-28T20:54:55.440Z,10.23
2019-04-28T20:57:27.341Z,10.20
2019-04-28T21:00:00.160Z,10.18
2019-04-28T21:02:31.885Z,10.18
2019-04-28T21:05:04.393Z,10.18
2019-04-28T21:07:37.727Z,10.13
2019-04-28T21:10:10.053Z,10.11
2019-04-28T21:12:41.385Z,10.11
2019-04-28T21:15:13.804Z,10.13
2019-04-28T21:17:45.639Z,10.13
2019-04-28T21:20:17.432Z,10.10
2019-04-28T21:22:49.966Z,10.17
2019-04-28T21:25:22.020Z,10.16
2019-04-28T21:27:53.305Z,10.16
2019-04-28T21:30:26.848Z,10.14
2019-04-28T21:32:59.075Z,10.16
2019-04-28T21:35:31.546Z,10.16
2019-04-28T21:38:02.664Z,10.20
2019-04-28T21:40:35.847Z,10.19
2019-04-28T21:43:08.857Z,10.19
2019-04-28T21:45:41.929Z,10.25
2019-04-28T21:48:14.906Z,10.22
2019-04-28T21:50:46.326Z,10.23
2019-04-28T21:53:19.277Z,10.22
2019-04-28T21:55:51.727Z,10.23
2019-04-28T21:58:32.851Z,10.22
2019-04-28T22:00:57.042Z,10.22
2019-04-28T22:03:28.449Z,10.25
2019-04-28T22:06:00.597Z,10.27
2019-04-28T22:08:31.764Z,10.24
2019-04-28T22:11:03.069Z,10.23
2019-04-28T22:13:33.905Z,10.21
2019-04-28T22:16:04.952Z,10.25
2019-04-28T22:18:36.125Z,10.26
2019-04-28T22:21:08.975Z,10.20
2019-04-28T22:23:41.696Z,10.18
2019-04-28T22:26:15.855Z,10.14
2019-04-28T22:28:46.946Z,10.19
2019-04-28T22:31:17.935Z,10.23
2019-04-28T22:33:49.508Z,10.21
2019-04-28T22:36:21.051Z,10.21
2019-04-28T22:38:52.337Z,10.22
2019-04-28T22:41:23.641Z,10.18
2019-04-28T22:43:56.488Z,10.20
2019-04-28T22:46:28.741Z,10.20
2019-04-28T22:49:01.474Z,10.20
2019-04-28T22:51:33.578Z,10.21
2019-04-28T22:54:08.019Z,10.18
2019-04-28T22:56:40.978Z,10.19
2019-04-28T22:59:14.128Z,10.20
2019-04-28T23:01:49.357Z,10.21
2019-04-28T23:04:21.920Z,10.22
2019-04-28T23:06:53.746Z,10.22
2019-04-28T23:09:25.720Z,10.25
2019-04-28T23:11:57.207Z,10.25
2019-04-28T23:14:29.293Z,10.29
2019-04-28T23:17:00.829Z,10.31
2019-04-28T23:19:34.772Z,10.33
2019-04-28T23:22:07.766Z,10.35
2019-04-28T23:24:39.626Z,10.34
2019-04-28T23:27:11.071Z,10.36
2019-04-28T23:29:42.288Z,10.38
2019-04-28T23:32:14.516Z,10.38
2019-04-28T23:34:46.215Z,10.37
2019-04-28T23:37:17.746Z,10.38
2019-04-28T23:39:49.049Z,10.37
2019-04-28T23:42:22.304Z,10.40
2019-04-28T23:44:54.210Z,10.39
2019-04-28T23:47:25.834Z,10.38
2019-04-28T23:49:57.714Z,10.38
2019-04-28T23:52:30.868Z,10.42
2019-04-28T23:55:03.863Z,10.41
2019-04-28T23:57:35.106Z,10.38
